Alpine Haven, Vermont
Current Conditions -  °F | °C
As of 4:35 PM on Thursday 23 Oct 2014 (Local Time) from KEFK Reporting Station
Drizzle Drizzle  
Wind Chill:   Ceiling: 700
Heat Index:   Visibility: 10mi
Dew Point:   Wind: 12mph
Humidity: 95%   Direction: 360°N
Pressure: 29.92"   Gusts: NA
Location:  44.8557°N, 72.6016°W
Report Text: KEFK 232035Z AUTO 36010KT 10SM -DZ BKN007 OVC011 07/06 A2992 RMK AO2 T00710063
Loading
Personal Weather Stations






























Interactive Weather Map
Tropical Storm Tracking
New forecast layout! Learn more

10-Day Weather Forecast

Advertisements
Track Severe Weather on mobile